Latest Weather Observations for Barimunya

IDW60801

Issued at 5:02 pm WST Monday 25 May 2015 (issued every 30 minutes, with the page automatically refreshed every 10 minutes)

About weather observations | Map of weather stations | Latest weather observations for WA | Other Formats
Station Details ID: 505053 Name: BARIMUNYA Lat: -22.67 Lon: 119.16 Height: 629.17 m
Data from the previous 72 hours. | See also: Recent months for locations in Western Australia
Date/Time
WST
Temp
°C
App
Temp
°C
Dew
Point
Rel
Hum
%
Delta-T
°C
Wind Press
QNH
hPa
Press
MSL
hPa
Rain
since 9 am
mm
Dir
 
Spd
km/h
Gust
km/h
Spd
kts
Gust
kts
25/05:00pm 14.5 12.0 12.4 87 1.2 ESE 17 20 9 11 1019.6 1017.1 1.0
25/04:30pm 14.7 13.0 12.6 87 1.2 ESE 13 20 7 11 1019.7 1017.2 1.0
25/04:00pm 14.8 12.0 12.5 86 1.3 E 19 24 10 13 1019.5 1017.0 1.0
25/03:30pm 14.9 12.4 12.4 85 1.4 E 17 22 9 12 1019.8 1017.3 1.0
25/03:00pm 14.8 12.2 11.9 83 1.6 ENE 17 24 9 13 1019.8 1017.3 1.0
25/02:30pm 14.6 12.3 11.9 84 1.5 E 15 20 8 11 1019.7 1017.2 1.0
25/02:00pm 13.9 11.6 11.6 86 1.3 ESE 15 20 8 11 1019.8 1017.3 1.0
25/01:30pm 14.2 12.7 11.9 86 1.3 E 11 19 6 10 1020.1 1017.6 1.0
25/01:00pm 13.8 12.0 12.2 90 0.9 E 13 17 7 9 1020.3 1017.9 1.0
25/12:30pm 13.5 10.3 11.9 90 0.9 ENE 20 30 11 16 1020.8 1018.3 1.0
25/12:25pm 13.5 10.5 11.9 90 0.9 ENE 19 26 10 14 1020.8 1018.3 1.0
25/12:00pm 13.5 11.6 13.0 97 0.3 NE 15 20 8 11 1021.4 1018.9 1.0
25/11:30am 13.4 10.7 12.9 97 0.3 NE 19 26 10 14 1021.6 1019.1 0.8
25/11:08am 13.3 10.3 12.7 96 0.3 NE 20 28 11 15 1021.8 1019.4 0.4
25/11:00am 13.3 10.3 12.7 96 0.3 NE 20 28 11 15 1021.7 1019.3 0.4
25/10:30am 13.3 10.0 12.7 96 0.3 NE 22 33 12 18 1021.9 1019.5 0.2
25/10:20am 13.4 9.7 12.6 95 0.4 NE 24 33 13 18 1022.0 1019.6 0.0
25/10:00am 13.6 10.8 12.7 94 0.5 ENE 19 26 10 14 1022.1 1019.7 0.0
25/09:30am 13.2 10.3 12.4 95 0.4 ENE 19 26 10 14 1022.0 1019.6 0.0
25/09:05am 12.9 9.5 12.4 97 0.3 NE 22 30 12 16 1022.0 1019.6 0.0
25/09:00am 12.9 9.9 12.4 97 0.3 NE 20 28 11 15 1021.9 1019.5 34.0
25/08:30am 13.0 10.0 12.4 96 0.3 NE 20 28 11 15 1021.7 1019.3 33.0
25/08:00am 13.2 9.8 12.6 96 0.3 ENE 22 30 12 16 1021.4 1018.9 32.4
25/07:30am 13.3 9.6 12.8 97 0.3 ENE 24 37 13 20 1021.0 1018.5 32.2
25/07:22am 13.3 9.6 12.8 97 0.3 ENE 24 37 13 20 1021.0 1018.5 32.2
25/07:00am 13.3 10.4 13.0 98 0.2 ENE 20 28 11 15 1021.0 1018.5 32.0
25/06:30am 13.5 11.2 13.0 97 0.3 E 17 24 9 13 1020.8 1018.3 32.0
25/06:00am 14.0 12.2 13.4 96 0.3 E 15 20 8 11 1020.4 1018.0 32.0
25/05:30am 13.8 11.6 13.3 97 0.3 ENE 17 24 9 13 1020.2 1017.7 31.8
25/05:00am 13.7 11.5 13.2 97 0.3 ENE 17 22 9 12 1019.7 1017.2 30.8
25/04:30am 13.4 10.6 13.1 98 0.2 NE 20 26 11 14 1020.0 1017.5 29.8
25/04:00am 13.5 11.2 13.0 97 0.3 NE 17 26 9 14 1020.3 1017.9 27.4
25/03:31am 13.7 11.1 13.2 97 0.3 NE 19 26 10 14 1020.1 1017.6 24.2
25/03:30am 13.6 11.3 13.1 97 0.3 NE 17 26 9 14 1020.1 1017.6 24.0
25/03:04am 13.7 11.9 13.2 97 0.3 ENE 15 20 8 11 1019.7 1017.2 20.8
25/03:00am 13.7 11.9 13.2 97 0.3 ENE 15 20 8 11 1019.8 1017.3 20.2
25/02:30am 13.6 11.3 13.1 97 0.3 E 17 24 9 13 1019.2 1016.7 19.6
25/02:00am 13.5 11.2 13.0 97 0.3 ESE 17 22 9 12 1019.3 1016.8 19.6
25/01:30am 13.4 10.5 12.8 96 0.3 ESE 20 28 11 15 1019.5 1017.0 19.4
25/01:29am 13.5 10.6 12.9 96 0.3 ESE 20 28 11 15 1019.5 1017.0 19.4
25/01:05am 13.4 10.6 12.6 95 0.4 E 19 24 10 13 1020.1 1017.6 19.4
25/01:00am 13.4 11.0 12.6 95 0.4 E 17 22 9 12 1020.1 1017.6 19.2
25/12:30am 13.4 10.6 12.6 95 0.4 ESE 19 24 10 13 1020.0 1017.5 18.8
25/12:00am 13.5 11.2 12.9 96 0.3 SE 17 20 9 11 1020.5 1018.1 18.6
 
Date/Time
WST
Temp
°C
App
Temp
°C
Dew
Point
Rel
Hum
%
Delta-T
°C
Wind Press
QNH
hPa
Press
MSL
hPa
Rain
since 9 am
mm
Dir
 
Spd
km/h
Gust
km/h
Spd
kts
Gust
kts
24/11:30pm 13.5 11.9 12.7 95 0.5 ESE 13 20 7 11 1020.9 1018.4 18.4
24/11:10pm 13.4 11.7 12.6 95 0.4 ESE 13 19 7 10 1021.2 1018.7 18.2
24/11:00pm 13.5 10.7 12.6 94 0.5 ESE 19 22 10 12 1021.2 1018.7 18.2
24/10:35pm 13.6 11.6 12.7 94 0.5 ESE 15 20 8 11 1021.2 1018.7 18.0
24/10:30pm 13.7 11.7 12.6 93 0.6 E 15 20 8 11 1021.3 1018.8 18.0
24/10:02pm 13.7 11.7 12.8 94 0.5 ENE 15 19 8 10 1021.5 1019.0 17.6
24/10:00pm 13.8 11.9 13.0 95 0.5 E 15 19 8 10 1021.5 1019.0 17.4
24/09:45pm 14.0 11.8 13.4 96 0.3 E 17 26 9 14 1021.5 1019.0 16.6
24/09:30pm 14.2 12.5 13.6 96 0.3 ENE 15 20 8 11 1021.7 1019.3 16.4
24/09:00pm 14.3 13.0 13.7 96 0.3 E 13 20 7 11 1021.5 1019.0 16.0
24/08:30pm 14.6 13.0 14.0 96 0.3 E 15 20 8 11 1021.1 1018.6 15.8
24/08:29pm 14.6 13.0 14.0 96 0.3 E 15 20 8 11 1021.1 1018.6 15.8
24/08:19pm 14.7 13.6 14.2 97 0.3 E 13 17 7 9 1021.0 1018.5 15.6
24/08:14pm 14.7 14.3 14.2 97 0.3 E 9 15 5 8 1021.0 1018.5 15.6
24/08:01pm 14.7 14.0 14.2 97 0.3 ENE 11 15 6 8 1020.9 1018.4 15.4
24/08:00pm 14.7 14.0 14.2 97 0.3 ENE 11 13 6 7 1020.9 1018.4 15.4
24/07:30pm 14.6 14.2 14.1 97 0.3 SE 9 13 5 7 1020.8 1018.3 15.0
24/07:00pm 14.7 14.3 14.1 96 0.3 E 9 13 5 7 1020.4 1018.0 14.8
24/06:30pm 14.6 14.2 14.0 96 0.3 ENE 9 13 5 7 1020.2 1017.7 14.4
24/06:00pm 14.5 14.1 14.0 97 0.3 ENE 9 13 5 7 1019.8 1017.3 13.6
24/05:30pm 14.2 13.3 13.7 97 0.3 NNE 11 20 6 11 1019.7 1017.2 12.6
24/05:27pm 14.2 12.9 13.6 96 0.3 NE 13 20 7 11 1019.7 1017.2 12.4
24/05:09pm 14.3 13.0 13.7 96 0.3 NE 13 17 7 9 1019.4 1016.9 11.0
24/05:00pm 14.4 13.5 13.6 95 0.5 NE 11 17 6 9 1019.3 1016.8 10.0
24/04:30pm 14.4 12.3 13.6 95 0.5 NE 17 22 9 12 1018.6 1016.1 9.0
24/04:20pm 14.3 11.9 13.7 96 0.3 NE 19 26 10 14 1018.6 1016.1 9.0
24/04:00pm 14.4 12.7 13.6 95 0.5 NE 15 22 8 12 1018.7 1016.2 8.4
24/03:36pm 14.8 13.2 14.0 95 0.5 NE 15 22 8 12 1018.8 1016.3 6.8
24/03:32pm 15.2 14.1 14.4 95 0.5 ENE 13 20 7 11 1018.6 1016.1 6.6
24/03:30pm 15.2 14.1 14.4 95 0.5 ENE 13 17 7 9 1018.7 1016.2 6.4
24/03:29pm 15.2 14.1 14.4 95 0.5 ENE 13 17 7 9 1018.6 1016.1 6.4
24/03:12pm 15.4 14.4 14.6 95 0.5 E 13 17 7 9 1018.2 1015.7 5.6
24/03:00pm 15.5 14.9 14.7 95 0.5 E 11 17 6 9 1018.2 1015.7 5.0
24/02:51pm 15.4 15.2 14.6 95 0.5 NNE 9 17 5 9 1018.2 1015.7 4.0
24/02:50pm 15.5 14.9 14.7 95 0.5 NNE 11 17 6 9 1018.3 1015.8 3.4
24/02:30pm 15.5 13.3 14.5 94 0.6 NE 19 24 10 13 1018.2 1015.7 1.6
24/02:07pm 15.8 14.4 14.5 92 0.8 NE 15 24 8 13 1018.4 1015.9 0.4
24/02:01pm 16.3 15.3 14.7 90 0.9 NE 13 20 7 11 1018.3 1015.8 0.2
24/02:00pm 16.2 14.8 14.4 89 1.1 NE 15 20 8 11 1018.3 1015.8 0.2
24/01:30pm 17.8 15.7 13.7 77 2.4 NE 17 24 9 13 1018.0 1015.5 0.0
24/01:00pm 18.3 16.5 13.2 72 3.0 NE 15 20 8 11 1018.3 1015.8 0.0
24/12:30pm 18.6 16.2 12.8 69 3.4 NE 17 28 9 15 1019.1 1016.6 0.0
24/12:00pm 19.3 18.2 13.0 67 3.7 E 11 17 6 9 1019.1 1016.6 0.0
24/11:30am 18.2 17.3 12.6 70 3.2 NE 9 17 5 9 1019.5 1017.0 0.0
24/11:00am 18.1 16.6 13.2 73 2.8 NE 13 19 7 10 1019.8 1017.3 0.0
24/10:30am 17.3 16.1 12.8 75 2.6 ENE 11 15 6 8 1019.8 1017.3 0.0
24/10:00am 16.9 15.7 12.8 77 2.3 E 11 15 6 8 1020.2 1017.7 0.0
24/09:30am 16.3 14.3 12.7 79 2.1 E 15 20 8 11 1020.2 1017.7 0.0
24/09:00am 16.3 14.7 12.7 79 2.0 E 13 15 7 8 1020.2 1017.7 9.0
24/08:30am 15.4 13.3 12.5 83 1.6 ENE 15 20 8 11 1020.1 1017.6 9.0
24/08:03am 15.1 12.5 12.1 82 1.7 ENE 17 24 9 13 1020.1 1017.6 9.0
24/08:00am 15.0 12.8 12.1 83 1.6 ENE 15 22 8 12 1020.1 1017.6 9.0
24/07:30am 15.0 13.8 13.9 93 0.6 ENE 13 20 7 11 1020.0 1017.5 9.0
24/07:00am 15.2 13.6 13.9 92 0.8 ENE 15 24 8 13 1019.7 1017.2 8.8
24/06:56am 15.2 13.6 13.9 92 0.8 ENE 15 24 8 13 1019.7 1017.2 8.8
24/06:46am 15.2 13.2 13.9 92 0.8 ENE 17 22 9 12 1019.5 1017.0 8.8
24/06:30am 15.2 13.6 13.9 92 0.8 ENE 15 20 8 11 1019.4 1016.9 8.8
24/06:00am 15.4 13.7 14.8 96 0.4 ENE 17 22 9 12 1018.8 1016.3 8.8
24/05:30am 15.6 15.2 15.1 97 0.3 ENE 11 15 6 8 1018.5 1016.0 8.8
24/05:00am 15.3 14.5 15.0 98 0.2 ENE 13 19 7 10 1018.3 1015.8 8.8
24/04:54am 15.4 14.6 15.1 98 0.2 ENE 13 19 7 10 1018.2 1015.7 8.8
24/04:30am 15.4 14.2 15.1 98 0.2 E 15 20 8 11 1018.0 1015.5 8.8
24/04:16am 15.5 14.7 15.0 97 0.3 E 13 19 7 10 1017.9 1015.4 8.6
24/04:00am 15.7 16.3 15.2 97 0.3 ENE 6 13 3 7 1017.9 1015.4 8.6
24/03:48am 15.6 15.6 15.3 98 0.2 ENE 9 13 5 7 1017.8 1015.3 8.6
24/03:30am 15.4 15.0 15.1 98 0.2 ENE 11 15 6 8 1018.0 1015.5 8.6
24/03:10am 15.4 14.5 14.9 97 0.3 ENE 13 17 7 9 1018.0 1015.5 8.4
24/03:00am 15.5 14.3 15.0 97 0.3 E 15 19 8 10 1018.0 1015.5 8.4
24/02:30am 15.6 14.8 15.0 96 0.4 E 13 19 7 10 1018.0 1015.5 8.4
24/02:00am 15.9 17.3 15.3 96 0.4 ENE 2 7 1 4 1018.5 1016.0 8.4
24/01:30am 15.7 14.9 15.2 97 0.3 E 13 19 7 10 1018.4 1015.9 8.0
24/01:00am 15.9 14.8 15.4 97 0.3 SE 15 19 8 10 1018.5 1016.0 7.8
24/12:30am 16.2 16.3 15.6 96 0.4 E 9 15 5 8 1018.9 1016.5 6.8
24/12:00am 16.3 15.6 15.5 95 0.5 SE 13 15 7 8 1018.8 1016.3 6.8
 
Date/Time
WST
Temp
°C
App
Temp
°C
Dew
Point
Rel
Hum
%
Delta-T
°C
Wind Press
QNH
hPa
Press
MSL
hPa
Rain
since 9 am
mm
Dir
 
Spd
km/h
Gust
km/h
Spd
kts
Gust
kts
23/11:30pm 16.5 16.3 15.7 95 0.5 E 11 13 6 7 1019.1 1016.6 6.6
23/11:00pm 16.6 16.4 15.8 95 0.5 ESE 11 15 6 8 1019.1 1016.6 6.6
23/10:51pm 16.6 16.1 15.8 95 0.5 ESE 13 17 7 9 1019.2 1016.7 6.6
23/10:30pm 16.8 16.6 15.8 94 0.6 ESE 11 13 6 7 1019.3 1016.8 6.6
23/10:00pm 16.9 17.1 15.8 93 0.7 E 9 11 5 6 1019.5 1017.0 6.4
23/09:30pm 17.2 17.5 15.9 92 0.8 ESE 9 15 5 8 1019.6 1017.1 5.8
23/09:00pm 17.4 17.7 16.1 92 0.8 ESE 9 9 5 5 1020.0 1017.5 5.8
23/08:30pm 17.4 18.4 16.3 93 0.7 WNW 6 9 3 5 1020.0 1017.5 5.8
23/08:00pm 17.3 19.2 15.8 91 0.9 CALM 0 0 0 0 1019.9 1017.4 5.8
23/07:30pm 17.3 19.1 15.6 90 1.0 CALM 0 0 0 0 1019.6 1017.1 5.6
23/07:04pm 17.1 17.6 15.6 91 0.9 NNW 7 11 4 6 1019.3 1016.8 5.6
23/07:00pm 17.1 17.2 15.4 90 1.0 NNW 9 15 5 8 1019.2 1016.7 5.6
23/06:39pm 17.9 17.5 16.2 90 1.0 NW 13 20 7 11 1019.5 1017.0 2.0
23/06:30pm 18.5 18.9 16.3 87 1.4 N 9 13 5 7 1019.4 1016.9 0.0
23/06:00pm 19.1 21.0 15.8 81 2.0 CALM 0 0 0 0 1018.6 1016.1 0.0
23/05:30pm 19.4 21.1 15.3 77 2.5 CALM 0 0 0 0 1018.4 1015.9 0.0
23/05:00pm 19.6 21.2 14.8 74 2.9 CALM 0 7 0 4 1018.2 1015.7 0.0
23/04:30pm 19.7 20.2 14.9 74 2.9 NE 6 7 3 4 1018.0 1015.5 0.0
23/04:00pm 20.0 20.4 14.8 72 3.1 NE 6 7 3 4 1017.6 1015.1 0.0
23/03:30pm 19.8 20.7 14.0 69 3.4 NE 2 9 1 5 1017.7 1015.2 0.0
23/03:00pm 19.8 21.1 14.2 70 3.3 CALM 0 4 0 2 1018.0 1015.5 0.0
23/02:30pm 19.8 21.2 14.4 71 3.2 CALM 0 0 0 0 1017.9 1015.4 0.0
23/02:00pm 19.6 19.4 14.6 73 3.0 NE 9 13 5 7 1017.7 1015.2 0.0
23/01:30pm 19.6 20.6 14.2 71 3.2 ENE 2 9 1 5 1018.1 1015.6 0.0
23/01:00pm 19.5 19.5 14.1 71 3.2 SE 7 13 4 7 1018.3 1015.8 0.0
23/12:30pm 19.1 19.2 14.4 74 2.8 E 7 11 4 6 1018.8 1016.3 0.0
23/12:00pm 19.2 18.8 14.2 73 3.0 NE 9 15 5 8 1019.2 1016.7 0.0
23/11:30am 19.2 18.7 13.8 71 3.2 NE 9 15 5 8 1019.5 1017.0 0.0
23/11:00am 18.8 18.2 13.4 71 3.2 ENE 9 15 5 8 1019.8 1017.3 0.0
23/10:30am 18.7 17.9 14.0 74 2.8 ENE 11 15 6 8 1020.2 1017.7 0.0
23/10:00am 18.3 17.4 13.8 75 2.6 ENE 11 15 6 8 1020.3 1017.9 0.0
23/09:30am 18.2 18.0 13.5 74 2.7 E 7 9 4 5 1021.1 1018.6 0.0
23/09:00am 18.1 17.2 13.6 75 2.6 E 11 15 6 8 1020.5 1018.1 14.6
23/08:30am 17.8 17.8 14.3 80 2.1 ESE 7 9 4 5 1020.8 1018.3 14.6
23/08:00am 17.5 16.8 14.4 82 1.8 SE 11 13 6 7 1020.3 1017.9 14.6
23/07:30am 17.0 18.1 14.6 86 1.4 ESE 2 7 1 4 1020.4 1018.0 14.6
23/07:00am 16.6 18.3 15.3 92 0.8 CALM 0 0 0 0 1020.2 1017.7 14.6
23/06:30am 16.5 18.3 15.5 94 0.6 CALM 0 0 0 0 1020.1 1017.6 14.6
23/06:00am 16.5 18.2 15.2 92 0.8 CALM 0 0 0 0 1020.0 1017.5 14.4
23/05:30am 16.5 18.2 15.2 92 0.8 CALM 0 0 0 0 1019.7 1017.2 14.4
23/05:00am 16.6 17.8 14.8 89 1.1 ESE 2 7 1 4 1019.5 1017.0 14.4
23/04:30am 16.6 18.2 15.0 90 1.0 CALM 0 0 0 0 1019.4 1016.9 14.2
23/04:00am 16.7 17.1 14.7 88 1.2 ENE 6 13 3 7 1019.7 1017.2 14.0
23/03:30am 16.7 17.2 15.6 93 0.7 ENE 7 9 4 5 1019.5 1017.0 14.0
23/03:00am 16.6 18.2 16.0 96 0.4 NNE 2 7 1 4 1019.8 1017.3 14.0
23/02:30am 16.7 17.0 16.1 96 0.4 NE 9 11 5 6 1019.7 1017.2 13.8
23/02:09am 16.8 17.7 16.0 95 0.5 ENE 6 9 3 5 1019.9 1017.4 13.6
23/02:00am 16.8 17.5 16.0 95 0.5 NE 7 11 4 6 1020.0 1017.5 13.6
23/01:46am 16.9 17.8 16.1 95 0.5 SE 6 11 3 6 1020.0 1017.5 13.6
23/01:30am 16.9 18.2 16.1 95 0.5 SE 4 9 2 5 1019.9 1017.4 13.4
23/01:00am 16.9 18.6 16.3 96 0.4 SE 2 7 1 4 1019.9 1017.4 13.0
23/12:30am 16.9 17.8 16.1 95 0.5 SE 6 9 3 5 1020.2 1017.7 13.0
23/12:00am 16.9 18.9 16.1 95 0.5 CALM 0 0 0 0 1020.2 1017.7 13.0
 
Date/Time
WST
Temp
°C
App
Temp
°C
Dew
Point
Rel
Hum
%
Delta-T
°C
Wind Press
QNH
hPa
Press
MSL
hPa
Rain
since 9 am
mm
Dir
 
Spd
km/h
Gust
km/h
Spd
kts
Gust
kts
22/11:30pm 17.0 17.3 16.0 94 0.6 SE 9 11 5 6 1020.2 1017.7 12.8
22/11:00pm 17.1 18.0 16.0 93 0.7 SSE 6 9 3 5 1020.4 1018.0 12.8
22/10:30pm 17.4 18.1 15.7 90 1.0 SSE 6 11 3 6 1021.1 1018.6 12.2
22/10:00pm 17.6 18.0 15.2 86 1.4 NE 7 11 4 6 1020.4 1018.0 11.8
22/09:30pm 17.5 18.2 15.7 89 1.1 NE 6 9 3 5 1020.3 1017.9 11.6
22/09:00pm 17.4 17.2 15.6 89 1.1 NNE 11 13 6 7 1020.3 1017.9 11.6
22/08:30pm 17.2 17.0 15.7 91 0.9 NNE 11 13 6 7 1020.6 1018.2 11.6
22/08:00pm 17.4 17.0 15.2 87 1.3 NNE 11 17 6 9 1020.4 1018.0 11.6
22/07:38pm 17.4 16.1 15.7 90 1.0 NE 17 22 9 12 1020.1 1017.6 11.6
22/07:30pm 17.2 15.6 15.9 92 0.8 NE 19 22 10 12 1020.3 1017.9 11.4
22/07:14pm 17.2 15.8 15.5 90 1.0 N 17 26 9 14 1021.4 1018.9 6.4
22/07:00pm 17.7 17.4 15.5 87 1.3 NE 11 17 6 9 1020.4 1018.0 2.6
22/06:30pm 19.1 18.1 15.6 80 2.1 NNE 15 20 8 11 1020.4 1018.0 1.2
22/06:00pm 19.8 19.1 15.4 76 2.7 ENE 13 19 7 10 1019.7 1017.2 1.0
22/05:30pm 19.8 19.2 15.7 77 2.5 NE 13 15 7 8 1019.6 1017.1 1.0

Other Formats:

Comma delimited format used in spreadsheet applications
http://www.bom.gov.au/fwo/IDW60801/IDW60801.99313.axf

JavaScript Object Notation format (JSON) in row-major order
http://www.bom.gov.au/fwo/IDW60801/IDW60801.99313.json